createdAt,value
2019-03-31T00:05:29.758Z,34.70
2019-03-31T00:08:00.273Z,33.70
2019-03-31T00:10:30.903Z,34.60
2019-03-31T00:13:01.486Z,35.13
2019-03-31T00:15:32.076Z,36.10
2019-03-31T00:18:02.593Z,38.30
2019-03-31T00:20:33.176Z,34.00
2019-03-31T00:23:03.572Z,36.90
2019-03-31T00:25:34.445Z,35.43
2019-03-31T00:28:04.968Z,32.73
2019-03-31T00:30:35.462Z,31.00
2019-03-31T00:33:05.868Z,30.73
2019-03-31T00:35:36.333Z,30.67
2019-03-31T00:38:06.813Z,32.57
2019-03-31T00:40:37.446Z,32.87
2019-03-31T00:43:08.141Z,32.80
2019-03-31T00:45:39.001Z,33.77
2019-03-31T00:48:09.428Z,32.90
2019-03-31T00:50:39.914Z,32.03
2019-03-31T00:53:10.350Z,32.43
2019-03-31T00:55:40.911Z,38.00
2019-03-31T00:58:11.312Z,38.00
2019-03-31T01:01:00.557Z,37.67
2019-03-31T01:03:32.628Z,36.90
2019-03-31T01:06:03.445Z,42.33
2019-03-31T01:15:30.727Z,59.50
2019-03-31T01:18:01.472Z,52.20
2019-03-31T01:20:32.084Z,48.43
2019-03-31T01:23:02.524Z,51.07
2019-03-31T01:25:33.493Z,52.53
2019-03-31T01:28:04.224Z,53.97
2019-03-31T01:30:34.754Z,54.77
2019-03-31T01:33:05.626Z,58.00
2019-03-31T01:35:36.789Z,39.27
2019-03-31T01:38:07.558Z,34.43
2019-03-31T01:40:38.008Z,29.60
2019-03-31T01:43:08.698Z,34.20
2019-03-31T01:45:39.270Z,31.33
2019-03-31T01:48:09.850Z,35.07
2019-03-31T01:50:40.305Z,38.00
2019-03-31T01:53:10.836Z,35.83
2019-03-31T01:55:41.441Z,28.40
2019-03-31T01:58:11.977Z,30.73
2019-03-31T02:00:45.207Z,28.70
2019-03-31T02:03:15.909Z,34.33
2019-03-31T02:05:46.333Z,37.43
2019-03-31T02:08:16.909Z,44.60
2019-03-31T02:10:47.531Z,48.00
2019-03-31T02:13:18.056Z,49.93
2019-03-31T02:15:48.545Z,43.30
2019-03-31T02:18:19.039Z,45.83
2019-03-31T02:20:49.659Z,33.37
2019-03-31T02:23:20.218Z,31.20
2019-03-31T02:25:50.846Z,27.27
2019-03-31T02:28:21.449Z,27.03
2019-03-31T02:30:52.014Z,31.17
2019-03-31T02:33:22.529Z,36.20
2019-03-31T02:35:53.390Z,62.63
2019-03-31T02:38:24.018Z,66.37
2019-03-31T02:40:54.541Z,56.00
2019-03-31T02:43:25.115Z,53.07
2019-03-31T02:45:55.521Z,59.57
2019-03-31T02:48:25.952Z,49.67
2019-03-31T02:50:56.383Z,49.17
2019-03-31T02:53:27.362Z,50.90
2019-03-31T02:55:58.595Z,50.57
2019-03-31T02:58:29.430Z,45.73
2019-03-31T03:01:00.897Z,38.03
2019-03-31T03:03:33.234Z,41.27
2019-03-31T03:06:05.719Z,37.27
2019-03-31T03:08:37.144Z,36.93
2019-03-31T03:11:09.063Z,34.93
2019-03-31T03:13:41.519Z,32.47
2019-03-31T03:16:20.026Z,32.83
2019-03-31T03:18:51.015Z,30.60
2019-03-31T03:21:24.796Z,30.77
2019-03-31T03:23:54.428Z,32.20
2019-03-31T03:26:25.441Z,46.23
2019-03-31T03:28:56.113Z,44.40
2019-03-31T03:31:26.658Z,51.60
2019-03-31T03:33:57.107Z,42.90
2019-03-31T03:36:27.608Z,38.13
2019-03-31T03:38:58.179Z,40.47
2019-03-31T03:41:31.792Z,37.03
2019-03-31T03:44:02.886Z,39.43
2019-03-31T03:46:33.641Z,35.33
2019-03-31T03:49:04.152Z,43.57
2019-03-31T03:51:34.634Z,34.00
2019-03-31T03:54:05.269Z,35.13
2019-03-31T03:56:35.827Z,36.87
2019-03-31T03:59:06.424Z,37.90
2019-03-31T04:01:36.878Z,39.73
2019-03-31T04:04:07.434Z,37.77
2019-03-31T04:06:38.339Z,36.13
2019-03-31T04:09:09.206Z,36.33
2019-03-31T04:11:39.620Z,36.50
2019-03-31T04:14:10.091Z,38.30
2019-03-31T04:16:40.489Z,34.80
2019-03-31T04:19:10.991Z,34.60
2019-03-31T04:21:41.548Z,31.77
2019-03-31T04:24:12.011Z,32.30
2019-03-31T04:26:42.973Z,31.20
2019-03-31T04:29:13.472Z,32.63
2019-03-31T04:31:43.899Z,31.77
2019-03-31T04:34:14.374Z,35.27
2019-03-31T04:36:44.981Z,32.90
2019-03-31T04:39:15.639Z,35.20
2019-03-31T04:41:46.136Z,35.23
2019-03-31T04:44:16.645Z,35.63
2019-03-31T04:46:47.060Z,33.37
2019-03-31T04:49:17.469Z,33.87
2019-03-31T04:51:47.959Z,36.53
2019-03-31T04:54:18.449Z,41.23
2019-03-31T04:56:48.826Z,40.93
2019-03-31T04:59:19.255Z,46.57
2019-03-31T05:01:49.698Z,45.27
2019-03-31T05:04:20.233Z,44.43
2019-03-31T05:06:50.764Z,43.53
2019-03-31T05:09:21.162Z,44.77
2019-03-31T05:11:52.230Z,43.77
2019-03-31T05:14:22.656Z,44.43
2019-03-31T05:16:53.168Z,45.07
2019-03-31T05:19:23.705Z,46.03
2019-03-31T05:21:54.275Z,46.57
2019-03-31T05:24:24.810Z,47.27
2019-03-31T05:26:55.447Z,46.83
2019-03-31T05:29:26.022Z,47.37
2019-03-31T05:31:56.608Z,46.37
2019-03-31T05:34:27.108Z,47.63
2019-03-31T05:36:57.724Z,47.40
2019-03-31T05:39:28.224Z,46.77
2019-03-31T05:41:58.775Z,45.73
2019-03-31T05:44:29.347Z,50.40
2019-03-31T05:47:00.031Z,50.17
2019-03-31T05:49:30.610Z,43.13
2019-03-31T05:52:01.079Z,43.93
2019-03-31T05:54:31.641Z,44.90
2019-03-31T05:57:02.123Z,44.13
2019-03-31T05:59:32.584Z,39.77
2019-03-31T06:02:03.064Z,38.17
2019-03-31T06:04:33.766Z,40.63
2019-03-31T06:07:04.535Z,40.43
2019-03-31T06:09:35.080Z,38.63
2019-03-31T06:12:07.145Z,35.57
2019-03-31T06:14:37.627Z,38.60
2019-03-31T06:17:08.902Z,35.73
2019-03-31T06:19:39.633Z,35.13
2019-03-31T06:22:10.283Z,35.47
2019-03-31T06:24:40.797Z,35.53
2019-03-31T06:27:15.613Z,34.17
2019-03-31T06:29:44.533Z,33.70
2019-03-31T06:32:15.100Z,31.73
2019-03-31T06:34:47.695Z,30.87
2019-03-31T06:37:17.702Z,29.50
2019-03-31T06:39:48.161Z,30.77
2019-03-31T06:42:18.853Z,29.47
2019-03-31T06:44:49.203Z,29.83
2019-03-31T06:47:19.884Z,30.17
2019-03-31T06:49:50.409Z,27.13
2019-03-31T06:52:21.000Z,27.93
2019-03-31T06:58:33.104Z,26.57
2019-03-31T07:01:04.061Z,25.97
2019-03-31T07:03:34.585Z,26.73
2019-03-31T07:06:04.979Z,28.47
2019-03-31T07:08:36.009Z,27.13
2019-03-31T07:11:06.645Z,25.20
2019-03-31T07:13:37.169Z,25.27
2019-03-31T07:16:08.156Z,26.40
2019-03-31T07:18:38.650Z,22.50
2019-03-31T07:21:09.153Z,22.83
2019-03-31T07:23:39.623Z,22.73
2019-03-31T07:26:10.024Z,23.57
2019-03-31T07:28:41.545Z,24.40
2019-03-31T07:31:12.132Z,24.60
2019-03-31T07:33:42.726Z,26.83
2019-03-31T07:36:15.240Z,24.57
2019-03-31T07:38:45.999Z,26.03
2019-03-31T07:41:16.777Z,24.57
2019-03-31T07:43:47.522Z,22.77
2019-03-31T07:46:18.088Z,21.47
2019-03-31T07:48:48.663Z,21.87
2019-03-31T07:51:21.563Z,22.33
2019-03-31T07:53:52.709Z,21.37
2019-03-31T07:56:24.424Z,21.07
2019-03-31T07:58:55.948Z,18.57
2019-03-31T08:01:26.537Z,18.93
2019-03-31T08:03:57.094Z,20.63
2019-03-31T08:06:27.520Z,19.20
2019-03-31T08:08:58.088Z,18.87
2019-03-31T08:11:28.505Z,18.00
2019-03-31T08:13:59.144Z,18.87
2019-03-31T08:16:29.968Z,18.23
2019-03-31T08:19:00.702Z,17.90
2019-03-31T08:21:31.073Z,17.33
2019-03-31T08:24:01.547Z,16.60
2019-03-31T08:26:31.924Z,17.17
2019-03-31T08:29:02.534Z,16.83
2019-03-31T08:31:32.959Z,16.60
2019-03-31T08:34:03.477Z,18.27
2019-03-31T08:36:37.584Z,16.30
2019-03-31T08:39:09.937Z,15.80
2019-03-31T08:41:40.594Z,16.77
2019-03-31T08:44:11.462Z,16.67
2019-03-31T08:46:42.030Z,16.47
2019-03-31T08:49:12.606Z,16.40
2019-03-31T08:51:43.041Z,15.73
2019-03-31T08:54:14.016Z,14.33
2019-03-31T08:56:44.725Z,13.33
2019-03-31T08:59:15.769Z,10.73
2019-03-31T09:01:46.191Z,11.03
2019-03-31T09:04:16.767Z,12.67
2019-03-31T09:06:47.416Z,11.47
2019-03-31T09:09:18.539Z,11.27
2019-03-31T09:11:49.161Z,12.00
2019-03-31T09:14:19.791Z,11.10
2019-03-31T09:16:50.428Z,9.70
2019-03-31T09:19:20.987Z,8.50
2019-03-31T09:21:51.446Z,7.87
2019-03-31T09:24:22.341Z,8.27
2019-03-31T09:26:52.834Z,8.37
2019-03-31T09:29:23.855Z,8.43
2019-03-31T09:31:54.332Z,8.50
2019-03-31T09:34:24.896Z,10.00
2019-03-31T09:36:55.461Z,8.30
2019-03-31T09:39:26.138Z,8.53
2019-03-31T09:41:56.843Z,8.63
2019-03-31T09:44:30.385Z,8.40
2019-03-31T09:47:01.383Z,7.70
2019-03-31T09:49:32.441Z,8.47
2019-03-31T09:52:02.880Z,8.33
2019-03-31T09:54:33.329Z,8.57
2019-03-31T09:57:04.336Z,8.23
2019-03-31T09:59:34.863Z,9.03
2019-03-31T10:02:05.392Z,8.23
2019-03-31T10:04:36.450Z,8.13
2019-03-31T10:07:07.076Z,8.47
2019-03-31T10:09:38.378Z,8.33
2019-03-31T10:12:08.839Z,8.50
2019-03-31T10:14:48.123Z,7.17
2019-03-31T10:17:18.906Z,6.83
2019-03-31T10:19:49.376Z,7.63
2019-03-31T10:22:20.024Z,7.30
2019-03-31T10:24:50.491Z,6.83
2019-03-31T10:27:21.006Z,5.03
2019-03-31T10:29:51.513Z,5.70
2019-03-31T10:32:22.048Z,5.27
2019-03-31T10:34:52.528Z,6.17
2019-03-31T10:37:23.171Z,5.67
2019-03-31T10:39:53.780Z,5.67
2019-03-31T10:42:24.291Z,5.00
2019-03-31T10:44:54.788Z,3.83
2019-03-31T10:47:25.713Z,4.20
2019-03-31T10:49:56.332Z,5.07
2019-03-31T10:52:26.846Z,4.80
2019-03-31T10:54:57.357Z,4.40
2019-03-31T10:57:27.946Z,4.50
2019-03-31T10:59:58.524Z,4.73
2019-03-31T11:02:30.360Z,6.27
2019-03-31T11:05:00.756Z,4.43
2019-03-31T11:07:31.310Z,5.23
2019-03-31T11:10:01.743Z,4.87
2019-03-31T11:12:33.259Z,4.63
2019-03-31T11:15:03.838Z,5.77
2019-03-31T11:17:34.410Z,5.50
2019-03-31T11:20:05.251Z,5.40
2019-03-31T11:22:58.888Z,5.53
2019-03-31T11:25:29.662Z,5.50
2019-03-31T11:28:00.229Z,5.10
2019-03-31T11:30:31.117Z,6.07
2019-03-31T11:33:02.001Z,5.87
2019-03-31T11:35:32.477Z,6.77
2019-03-31T11:38:02.931Z,6.33
2019-03-31T11:40:33.430Z,6.60
2019-03-31T11:43:04.010Z,6.43
2019-03-31T11:45:34.519Z,5.50
2019-03-31T11:48:05.274Z,6.00
2019-03-31T11:50:35.880Z,6.27
2019-03-31T11:53:07.652Z,5.73
2019-03-31T11:55:38.582Z,5.53
2019-03-31T11:58:09.275Z,5.13
2019-03-31T12:00:49.766Z,5.90
2019-03-31T12:03:20.285Z,5.30
2019-03-31T12:05:51.565Z,5.07
2019-03-31T12:08:22.042Z,5.60
2019-03-31T12:10:52.582Z,5.00
2019-03-31T12:13:24.663Z,5.00
2019-03-31T12:15:55.083Z,4.60
2019-03-31T12:18:25.613Z,5.70
2019-03-31T12:20:56.063Z,5.47
2019-03-31T12:23:26.539Z,4.77
2019-03-31T12:25:56.933Z,5.13
2019-03-31T12:28:27.462Z,4.70
2019-03-31T12:30:58.092Z,4.77
2019-03-31T12:33:28.565Z,5.03
2019-03-31T12:35:59.262Z,4.13
2019-03-31T12:38:33.131Z,3.47
2019-03-31T12:41:03.605Z,3.20
2019-03-31T12:43:34.536Z,2.63
2019-03-31T12:46:05.123Z,3.30
2019-03-31T12:48:35.670Z,2.90
2019-03-31T12:51:06.514Z,3.20
2019-03-31T12:53:37.062Z,3.17
2019-03-31T12:56:07.539Z,3.23
2019-03-31T12:58:38.532Z,2.47
2019-03-31T13:01:08.974Z,2.37
2019-03-31T13:03:40.517Z,3.13
2019-03-31T13:06:10.995Z,2.40
2019-03-31T13:08:41.438Z,2.13
2019-03-31T13:11:12.309Z,2.33
2019-03-31T13:13:42.826Z,1.87
2019-03-31T13:16:13.251Z,1.50
2019-03-31T13:18:44.750Z,1.80
2019-03-31T13:21:15.103Z,1.73
2019-03-31T13:23:52.151Z,1.67
2019-03-31T13:26:23.328Z,1.37
2019-03-31T13:28:53.730Z,1.50
2019-03-31T13:31:24.390Z,1.40
2019-03-31T13:33:55.547Z,1.63
2019-03-31T13:36:25.966Z,1.33
2019-03-31T13:38:56.496Z,2.13
2019-03-31T13:41:27.347Z,1.40
2019-03-31T13:43:57.824Z,1.40
2019-03-31T13:46:28.817Z,0.97
2019-03-31T13:48:59.283Z,1.43
2019-03-31T13:51:29.716Z,1.90
2019-03-31T13:54:00.294Z,1.60
2019-03-31T13:56:31.139Z,1.43
2019-03-31T13:59:03.043Z,1.30
2019-03-31T14:01:33.506Z,1.40
2019-03-31T14:04:07.698Z,1.27
2019-03-31T14:06:38.074Z,1.03
2019-03-31T14:09:10.260Z,1.17
2019-03-31T14:11:40.661Z,1.40
2019-03-31T14:14:11.171Z,1.30
2019-03-31T14:16:41.690Z,1.73
2019-03-31T14:19:13.210Z,1.53
2019-03-31T14:21:43.888Z,1.27
2019-03-31T14:24:15.336Z,1.60
2019-03-31T14:26:47.708Z,2.03
2019-03-31T14:29:17.901Z,1.57
2019-03-31T14:31:51.740Z,1.80
2019-03-31T14:34:20.365Z,1.30
2019-03-31T14:36:51.020Z,2.40
2019-03-31T14:39:21.610Z,1.43
2019-03-31T14:41:51.988Z,1.30
2019-03-31T14:44:22.498Z,1.80
2019-03-31T14:46:52.905Z,1.50
2019-03-31T14:49:25.848Z,1.50
2019-03-31T14:51:55.455Z,1.17
2019-03-31T14:54:26.184Z,2.00
2019-03-31T14:56:56.674Z,1.90
2019-03-31T14:59:27.098Z,2.00
2019-03-31T15:01:57.545Z,1.60
2019-03-31T15:04:27.913Z,0.97
2019-03-31T15:06:58.345Z,1.07
2019-03-31T15:09:28.804Z,0.90
2019-03-31T15:11:59.268Z,1.23
2019-03-31T15:14:29.724Z,1.30
2019-03-31T15:17:00.248Z,1.93
2019-03-31T15:19:30.710Z,1.30
2019-03-31T15:22:01.544Z,1.50
2019-03-31T15:24:32.169Z,1.40
2019-03-31T15:27:02.539Z,1.07
2019-03-31T15:29:33.371Z,1.70
2019-03-31T15:32:03.866Z,1.30
2019-03-31T15:34:34.236Z,1.50
2019-03-31T15:37:19.461Z,1.00
2019-03-31T15:40:35.670Z,1.23
2019-03-31T15:42:52.894Z,1.03
2019-03-31T15:45:25.654Z,1.10
2019-03-31T15:47:58.076Z,0.90
2019-03-31T15:50:30.913Z,0.93
2019-03-31T15:53:01.403Z,1.30
2019-03-31T15:55:31.906Z,1.30
2019-03-31T15:58:05.164Z,1.43
2019-03-31T16:00:38.051Z,0.90
2019-03-31T16:03:08.558Z,1.30
2019-03-31T16:05:38.996Z,1.07
2019-03-31T16:08:09.070Z,0.93
2019-03-31T16:10:40.281Z,1.93
2019-03-31T16:13:10.118Z,0.93
2019-03-31T16:15:39.989Z,0.90
2019-03-31T16:18:09.776Z,0.70
2019-03-31T16:20:39.644Z,0.90
2019-03-31T16:23:09.470Z,1.10
2019-03-31T16:25:41.987Z,0.97
2019-03-31T16:28:12.454Z,1.10
2019-03-31T16:30:42.291Z,1.23
2019-03-31T16:33:12.101Z,2.33
2019-03-31T16:35:42.252Z,1.03
2019-03-31T16:38:14.195Z,0.73
2019-03-31T16:40:44.084Z,0.80
2019-03-31T16:43:13.964Z,0.93
2019-03-31T16:45:43.862Z,1.60
2019-03-31T16:48:13.744Z,1.13
2019-03-31T16:50:43.746Z,1.40
2019-03-31T16:53:13.602Z,1.20
2019-03-31T16:55:43.674Z,0.80
2019-03-31T16:58:13.536Z,1.10
2019-03-31T17:00:43.448Z,1.20
2019-03-31T17:03:13.386Z,1.00
2019-03-31T17:05:43.435Z,1.00
2019-03-31T17:08:13.487Z,0.97
2019-03-31T17:10:43.321Z,0.73
2019-03-31T17:13:13.423Z,0.97
2019-03-31T17:15:43.900Z,1.23
2019-03-31T17:18:16.018Z,1.00
2019-03-31T17:21:04.841Z,1.30
2019-03-31T17:23:34.699Z,1.40
2019-03-31T17:26:05.313Z,0.80
2019-03-31T17:28:35.485Z,1.27
2019-03-31T17:31:05.462Z,1.60
2019-03-31T17:33:35.437Z,0.97
2019-03-31T17:36:05.433Z,1.00
2019-03-31T17:38:35.335Z,0.80
2019-03-31T17:41:05.386Z,1.73
2019-03-31T17:43:35.274Z,1.53
2019-03-31T17:46:05.190Z,1.13
2019-03-31T17:48:35.034Z,1.30
2019-03-31T17:51:04.919Z,1.10
2019-03-31T17:53:34.841Z,1.30
2019-03-31T17:56:04.832Z,1.17
2019-03-31T17:58:35.057Z,1.00
2019-03-31T18:01:04.878Z,1.20
2019-03-31T18:03:34.764Z,1.20
2019-03-31T18:06:04.849Z,1.20
2019-03-31T18:08:34.971Z,1.60
2019-03-31T18:11:05.002Z,1.10
2019-03-31T18:13:35.683Z,1.50
2019-03-31T18:16:05.952Z,2.43
2019-03-31T18:18:37.581Z,2.17
2019-03-31T18:21:08.251Z,2.20
2019-03-31T18:23:41.224Z,1.70
2019-03-31T18:26:13.587Z,1.67
2019-03-31T18:28:43.845Z,1.73
2019-03-31T18:31:14.183Z,2.10
2019-03-31T18:33:44.250Z,1.83
2019-03-31T18:36:14.780Z,1.70
2019-03-31T18:38:45.232Z,1.80
2019-03-31T18:41:15.253Z,1.50
2019-03-31T18:43:51.650Z,1.77
2019-03-31T18:46:17.274Z,1.27
2019-03-31T18:48:47.162Z,1.80
2019-03-31T18:51:17.135Z,1.77
2019-03-31T18:54:13.384Z,1.77
2019-03-31T18:56:58.826Z,1.30
2019-03-31T18:59:47.605Z,1.17
2019-03-31T19:02:48.874Z,1.40
2019-03-31T19:05:41.695Z,1.20
2019-03-31T19:08:30.538Z,1.20
2019-03-31T19:11:31.883Z,1.03
2019-03-31T19:14:24.038Z,1.83
2019-03-31T19:17:18.908Z,1.43
2019-03-31T19:19:54.067Z,0.90
2019-03-31T19:22:38.047Z,1.47
2019-03-31T19:25:20.832Z,1.43
2019-03-31T19:28:27.666Z,1.20
2019-03-31T19:31:22.493Z,1.00
2019-03-31T19:34:17.653Z,1.57
2019-03-31T19:37:05.062Z,1.07
2019-03-31T19:39:53.935Z,1.17
2019-03-31T19:42:42.713Z,1.10
2019-03-31T19:45:35.739Z,1.30
2019-03-31T19:48:19.280Z,1.47
2019-03-31T19:51:07.596Z,1.43
2019-03-31T19:54:05.388Z,1.50
2019-03-31T19:57:07.710Z,2.10
2019-03-31T20:00:05.516Z,1.87
2019-03-31T20:02:57.314Z,2.47
2019-03-31T20:05:44.857Z,1.80
2019-03-31T20:08:32.476Z,1.20
2019-03-31T20:11:23.057Z,1.70
2019-03-31T20:14:30.408Z,1.27
2019-03-31T20:17:27.700Z,1.27
2019-03-31T20:20:41.439Z,1.43
2019-03-31T20:23:52.357Z,1.83
2019-03-31T20:26:36.565Z,1.03
2019-03-31T20:29:31.371Z,1.30
2019-03-31T20:32:32.191Z,1.20
2019-03-31T20:35:21.001Z,1.93
2019-03-31T20:38:18.966Z,1.57
2019-03-31T20:40:58.178Z,1.70
2019-03-31T20:43:43.480Z,1.63
2019-03-31T20:46:14.290Z,1.50
2019-03-31T20:48:44.360Z,1.63
2019-03-31T20:51:14.264Z,1.30
2019-03-31T20:53:44.094Z,1.80
2019-03-31T20:56:14.068Z,1.20
2019-03-31T20:58:45.474Z,2.17
2019-03-31T21:01:15.303Z,1.63
2019-03-31T21:03:45.545Z,1.43
2019-03-31T21:06:15.471Z,1.40
2019-03-31T21:08:46.522Z,1.43
2019-03-31T21:11:16.441Z,1.17
2019-03-31T21:13:46.377Z,1.37
2019-03-31T21:16:16.238Z,1.47
2019-03-31T21:18:46.149Z,1.10
2019-03-31T21:21:16.134Z,1.07
2019-03-31T21:23:46.141Z,1.40
2019-03-31T21:26:16.065Z,1.40
2019-03-31T21:28:45.870Z,1.77
2019-03-31T21:31:15.714Z,1.60
2019-03-31T21:33:45.627Z,1.30
2019-03-31T21:36:15.563Z,1.80
2019-03-31T21:38:45.447Z,1.20
2019-03-31T21:41:15.643Z,1.33
2019-03-31T21:43:45.610Z,1.23
2019-03-31T21:46:16.021Z,1.40
2019-03-31T21:48:46.096Z,1.20
2019-03-31T21:51:15.927Z,1.43
2019-03-31T21:53:46.046Z,1.03
2019-03-31T21:56:15.921Z,1.40
2019-03-31T21:58:45.806Z,0.90
2019-03-31T22:01:16.544Z,1.30
2019-03-31T22:03:46.693Z,2.37
2019-03-31T22:06:16.573Z,1.73
2019-03-31T22:08:46.459Z,1.90
2019-03-31T22:11:16.424Z,1.60
2019-03-31T22:13:46.328Z,1.53
2019-03-31T22:16:16.221Z,1.50
2019-03-31T22:18:46.062Z,1.73
2019-03-31T22:21:15.999Z,1.13
2019-03-31T22:23:57.314Z,1.40
2019-03-31T22:26:19.635Z,1.37
2019-03-31T22:28:49.015Z,1.60
2019-03-31T22:31:19.047Z,1.47
2019-03-31T22:33:49.156Z,1.73
2019-03-31T22:36:22.074Z,1.80
2019-03-31T22:38:53.183Z,1.50
2019-03-31T22:41:34.586Z,2.00
2019-03-31T22:44:04.597Z,1.30
2019-03-31T22:46:34.570Z,1.67
2019-03-31T22:49:04.583Z,1.50
2019-03-31T22:51:34.555Z,1.80
2019-03-31T22:54:04.502Z,2.90
2019-03-31T22:56:34.389Z,1.70
2019-03-31T22:59:04.830Z,1.27
2019-03-31T23:01:34.762Z,1.60
2019-03-31T23:04:04.728Z,1.40
2019-03-31T23:06:34.827Z,1.90
2019-03-31T23:09:06.392Z,1.77
2019-03-31T23:11:36.464Z,1.13
2019-03-31T23:14:06.470Z,1.77
2019-03-31T23:16:36.400Z,1.47
2019-03-31T23:19:06.230Z,1.47
2019-03-31T23:21:36.130Z,1.50
2019-03-31T23:24:06.049Z,1.67
2019-03-31T23:26:36.070Z,1.80
2019-03-31T23:29:06.303Z,1.40
2019-03-31T23:31:36.254Z,1.37
2019-03-31T23:34:06.167Z,1.53
2019-03-31T23:36:36.194Z,1.10
2019-03-31T23:39:07.969Z,1.43
2019-03-31T23:41:37.868Z,1.30
2019-03-31T23:44:07.890Z,1.40
2019-03-31T23:46:37.818Z,1.30
2019-03-31T23:49:07.796Z,1.83
2019-03-31T23:51:37.779Z,1.33
2019-03-31T23:54:08.649Z,1.53
2019-03-31T23:56:38.535Z,1.47
2019-03-31T23:59:08.556Z,1.67
